Pagrindinis puslapis
METAR-TAF:

METAR-TAF

Oro uostai :

Grafenwöhr, Vokietija

platuma: 49-42N, ilguma: 011-57E, Aukštis: 415 m

Dabartinis oras

Ataskaita buvo paskelbta 1 valandą ir 2 minutes, ne 08:56 UTC
Vėjas 3 kt iš Pietryčių
Temperatūra
Slėgis 1029 hPa
Matomumas 10 km arba daugiau

METAR: ETIC 200856Z AUTO 14003KT 9999 M M A3039 RMK AO2 SLPNO ALSTG ESTMD 50004 RVRNO $

Laikas: 11:58 (09:58 UTC)

Prognozė

Ataskaita buvo paskelbta 3 valandos ir 53 minutes, ne 06:05 UTC
Prognozė galioja nuo 20 metu 06 UTC su 21 metu 12 UTC
Vėjas 6 kt nuo kintamojo kryptimis
Matomumas 10 km arba daugiau
Mažai debesys ne aukštis 5000 ft
Tapsmas
nuo 20 metu 12 UTC su 20 metu 13 UTC
Vėjas 6 kt nuo kintamojo kryptimis
Matomumas 10 km arba daugiau
Giedras dangus

TAF: ETIC 200605Z 2006/2112 VRB06KT 9999 FEW050 QNH3032INS BECMG 2012/2013 VRB06KT 9999 SKC QNH3024INS TX15/2015Z TNM02/2006Z

Orai ataskaitas ir orų prognozės (METAR, TAF).

turimą stotys yra geltonos ir raudonos taškus žemėlapyje.

Perkelti pele per norėdami pamatyti stoties vardą.

Tada spustelėkite, norėdami matyti oro stebėjimo ir prognozės.

Norėdami pakeisti žemėlapį: spustelėkite ant žalios mygtukų su juodo kryžiaus žemyn,; žalią mygtuką su brūkšneliu, jei norite nutolinti; arba žalių rodyklių gretimoms žemėlapius.


METAR-TAF: